sensor_id;sensor_type;location;lat;lon;timestamp;pressure;altitude;pressure_sealevel;temperature;humidity
77366;BME280;66430;50.182;11.704;2023-07-08T00:01:56;95097.43;;;21.33;25.42
77366;BME280;66430;50.182;11.704;2023-07-08T00:04:21;95096.66;;;21.25;25.44
77366;BME280;66430;50.182;11.704;2023-07-08T00:06:47;95094.63;;;21.18;25.40
77366;BME280;66430;50.182;11.704;2023-07-08T00:09:12;95095.48;;;21.36;25.24
77366;BME280;66430;50.182;11.704;2023-07-08T00:11:38;95091.72;;;21.35;25.27
77366;BME280;66430;50.182;11.704;2023-07-08T00:14:03;95089.79;;;21.03;25.26
77366;BME280;66430;50.182;11.704;2023-07-08T00:16:28;95089.01;;;21.02;25.36
77366;BME280;66430;50.182;11.704;2023-07-08T00:18:54;95086.81;;;21.44;25.38
77366;BME280;66430;50.182;11.704;2023-07-08T00:21:19;95085.18;;;20.95;25.17
77366;BME280;66430;50.182;11.704;2023-07-08T00:23:45;95081.44;;;20.91;25.07
77366;BME280;66430;50.182;11.704;2023-07-08T00:26:13;95079.37;;;21.12;25.18
77366;BME280;66430;50.182;11.704;2023-07-08T00:28:35;95077.35;;;20.83;25.08
77366;BME280;66430;50.182;11.704;2023-07-08T00:31:00;95078.31;;;20.72;25.47
77366;BME280;66430;50.182;11.704;2023-07-08T00:33:25;95074.41;;;20.95;25.32
77366;BME280;66430;50.182;11.704;2023-07-08T00:35:51;95077.34;;;20.88;25.24
77366;BME280;66430;50.182;11.704;2023-07-08T00:38:20;95077.52;;;20.59;25.22
77366;BME280;66430;50.182;11.704;2023-07-08T00:40:49;95075.71;;;20.56;25.06
77366;BME280;66430;50.182;11.704;2023-07-08T00:43:08;95075.15;;;20.53;25.05
77366;BME280;66430;50.182;11.704;2023-07-08T00:45:38;95077.13;;;20.69;24.99
77366;BME280;66430;50.182;11.704;2023-07-08T00:48:01;95076.40;;;20.91;24.90
77366;BME280;66430;50.182;11.704;2023-07-08T00:50:22;95076.41;;;21.13;24.90
77366;BME280;66430;50.182;11.704;2023-07-08T00:52:48;95079.87;;;20.35;25.18
77366;BME280;66430;50.182;11.704;2023-07-08T00:55:14;95077.32;;;20.33;25.00
77366;BME280;66430;50.182;11.704;2023-07-08T00:57:41;95081.07;;;20.50;25.51
77366;BME280;66430;50.182;11.704;2023-07-08T01:00:09;95084.09;;;20.65;25.75
77366;BME280;66430;50.182;11.704;2023-07-08T01:02:32;95084.43;;;20.56;25.74
77366;BME280;66430;50.182;11.704;2023-07-08T01:05:01;95085.39;;;20.51;25.55
77366;BME280;66430;50.182;11.704;2023-07-08T01:07:21;95083.17;;;20.48;25.54
77366;BME280;66430;50.182;11.704;2023-07-08T01:09:46;95079.12;;;20.42;25.85
77366;BME280;66430;50.182;11.704;2023-07-08T01:12:16;95076.59;;;20.32;26.07
77366;BME280;66430;50.182;11.704;2023-07-08T01:14:39;95072.15;;;20.53;25.76
77366;BME280;66430;50.182;11.704;2023-07-08T01:17:02;95071.03;;;20.20;25.81
77366;BME280;66430;50.182;11.704;2023-07-08T01:19:28;95069.64;;;20.41;25.85
77366;BME280;66430;50.182;11.704;2023-07-08T01:21:58;95069.10;;;19.66;25.92
77366;BME280;66430;50.182;11.704;2023-07-08T01:24:18;95072.59;;;20.37;25.85
77366;BME280;66430;50.182;11.704;2023-07-08T01:26:45;95073.34;;;20.28;26.00
77366;BME280;66430;50.182;11.704;2023-07-08T01:29:09;95069.38;;;20.19;26.03
77366;BME280;66430;50.182;11.704;2023-07-08T01:31:35;95067.68;;;20.17;26.29
77366;BME280;66430;50.182;11.704;2023-07-08T01:34:00;95068.67;;;20.17;25.77
77366;BME280;66430;50.182;11.704;2023-07-08T01:36:26;95067.52;;;20.16;25.94
77366;BME280;66430;50.182;11.704;2023-07-08T01:38:50;95067.85;;;19.84;25.80
77366;BME280;66430;50.182;11.704;2023-07-08T01:41:16;95068.53;;;20.11;25.71
77366;BME280;66430;50.182;11.704;2023-07-08T01:43:41;95070.90;;;19.83;25.71
77366;BME280;66430;50.182;11.704;2023-07-08T01:46:12;95073.63;;;19.81;25.80
77366;BME280;66430;50.182;11.704;2023-07-08T01:48:35;95075.03;;;20.06;25.87
77366;BME280;66430;50.182;11.704;2023-07-08T01:51:00;95076.35;;;20.06;25.79
77366;BME280;66430;50.182;11.704;2023-07-08T01:53:29;95074.58;;;20.06;25.82
77366;BME280;66430;50.182;11.704;2023-07-08T01:55:49;95072.03;;;19.78;25.89
77366;BME280;66430;50.182;11.704;2023-07-08T01:58:13;95064.13;;;19.93;25.96
77366;BME280;66430;50.182;11.704;2023-07-08T02:00:39;95063.52;;;19.93;26.02
77366;BME280;66430;50.182;11.704;2023-07-08T02:03:04;95063.23;;;20.21;25.89
77366;BME280;66430;50.182;11.704;2023-07-08T02:05:29;95063.63;;;19.94;26.13
77366;BME280;66430;50.182;11.704;2023-07-08T02:07:54;95063.94;;;19.70;25.86
77366;BME280;66430;50.182;11.704;2023-07-08T02:10:19;95059.62;;;19.71;25.93
77366;BME280;66430;50.182;11.704;2023-07-08T02:12:45;95060.99;;;19.67;25.97
77366;BME280;66430;50.182;11.704;2023-07-08T02:15:11;95059.60;;;19.61;26.16
77366;BME280;66430;50.182;11.704;2023-07-08T02:17:36;95058.30;;;19.95;26.01
77366;BME280;66430;50.182;11.704;2023-07-08T02:20:02;95062.07;;;19.98;25.96
77366;BME280;66430;50.182;11.704;2023-07-08T02:22:27;95064.13;;;19.90;26.07
77366;BME280;66430;50.182;11.704;2023-07-08T02:24:53;95063.59;;;19.96;26.02
77366;BME280;66430;50.182;11.704;2023-07-08T02:27:18;95067.32;;;19.88;26.06
77366;BME280;66430;50.182;11.704;2023-07-08T02:29:46;95070.76;;;19.83;26.26
77366;BME280;66430;50.182;11.704;2023-07-08T02:32:09;95067.44;;;19.78;26.23
77366;BME280;66430;50.182;11.704;2023-07-08T02:34:34;95066.96;;;19.73;26.30
77366;BME280;66430;50.182;11.704;2023-07-08T02:37:00;95069.16;;;19.70;26.42
77366;BME280;66430;50.182;11.704;2023-07-08T02:39:25;95072.84;;;19.66;26.66
77366;BME280;66430;50.182;11.704;2023-07-08T02:41:51;95073.42;;;19.61;26.62
77366;BME280;66430;50.182;11.704;2023-07-08T02:44:16;95075.47;;;19.49;26.84
77366;BME280;66430;50.182;11.704;2023-07-08T02:46:42;95082.69;;;19.47;27.10
77366;BME280;66430;50.182;11.704;2023-07-08T02:49:07;95084.67;;;19.49;26.95
77366;BME280;66430;50.182;11.704;2023-07-08T02:51:33;95083.32;;;19.47;26.87
77366;BME280;66430;50.182;11.704;2023-07-08T02:53:58;95081.11;;;19.23;27.46
77366;BME280;66430;50.182;11.704;2023-07-08T02:56:23;95077.57;;;19.26;27.21
77366;BME280;66430;50.182;11.704;2023-07-08T02:58:49;95074.71;;;19.17;27.30
77366;BME280;66430;50.182;11.704;2023-07-08T03:01:14;95075.49;;;19.40;27.31
77366;BME280;66430;50.182;11.704;2023-07-08T03:03:39;95078.57;;;19.33;27.47
77366;BME280;66430;50.182;11.704;2023-07-08T03:06:05;95082.55;;;19.08;27.63
77366;BME280;66430;50.182;11.704;2023-07-08T03:08:30;95083.73;;;19.07;27.70
77366;BME280;66430;50.182;11.704;2023-07-08T03:10:57;95083.27;;;19.27;27.53
77366;BME280;66430;50.182;11.704;2023-07-08T03:13:20;95087.05;;;19.30;27.25
77366;BME280;66430;50.182;11.704;2023-07-08T03:15:45;95086.12;;;19.26;27.17
77366;BME280;66430;50.182;11.704;2023-07-08T03:18:11;95082.57;;;19.08;27.12
77366;BME280;66430;50.182;11.704;2023-07-08T03:20:39;95079.98;;;19.09;27.16
77366;BME280;66430;50.182;11.704;2023-07-08T03:23:02;95078.38;;;19.38;27.28
77366;BME280;66430;50.182;11.704;2023-07-08T03:25:27;95082.68;;;19.40;27.57
77366;BME280;66430;50.182;11.704;2023-07-08T03:27:53;95085.70;;;19.18;27.53
77366;BME280;66430;50.182;11.704;2023-07-08T03:30:18;95089.03;;;19.26;27.51
77366;BME280;66430;50.182;11.704;2023-07-08T03:32:43;95092.16;;;19.45;27.14
77366;BME280;66430;50.182;11.704;2023-07-08T03:35:09;95091.82;;;19.61;26.98
77366;BME280;66430;50.182;11.704;2023-07-08T03:37:34;95091.38;;;19.76;26.93
77366;BME280;66430;50.182;11.704;2023-07-08T03:39:59;95090.16;;;19.91;27.02
77366;BME280;66430;50.182;11.704;2023-07-08T03:42:26;95093.08;;;20.02;27.09
77366;BME280;66430;50.182;11.704;2023-07-08T03:44:50;95095.55;;;19.95;26.89
77366;BME280;66430;50.182;11.704;2023-07-08T03:47:16;95097.71;;;20.17;26.82
77366;BME280;66430;50.182;11.704;2023-07-08T03:49:41;95095.41;;;20.67;26.95
77366;BME280;66430;50.182;11.704;2023-07-08T03:52:09;95095.54;;;20.66;26.89
77366;BME280;66430;50.182;11.704;2023-07-08T03:54:32;95093.66;;;20.49;26.51
77366;BME280;66430;50.182;11.704;2023-07-08T03:56:57;95090.20;;;21.02;26.44
77366;BME280;66430;50.182;11.704;2023-07-08T03:59:23;95089.95;;;21.04;26.45
77366;BME280;66430;50.182;11.704;2023-07-08T04:04:14;95093.56;;;21.49;26.43
77366;BME280;66430;50.182;11.704;2023-07-08T04:06:38;95092.45;;;21.75;26.66
77366;BME280;66430;50.182;11.704;2023-07-08T04:09:04;95095.98;;;21.97;26.89
77366;BME280;66430;50.182;11.704;2023-07-08T04:11:29;95099.56;;;21.71;26.49
77366;BME280;66430;50.182;11.704;2023-07-08T04:13:55;95104.34;;;22.00;27.02
77366;BME280;66430;50.182;11.704;2023-07-08T04:16:23;95105.16;;;22.19;27.31
77366;BME280;66430;50.182;11.704;2023-07-08T04:18:46;95105.05;;;22.36;27.58
77366;BME280;66430;50.182;11.704;2023-07-08T04:21:12;95102.97;;;22.16;27.35
77366;BME280;66430;50.182;11.704;2023-07-08T04:23:37;95103.93;;;22.16;27.26
77366;BME280;66430;50.182;11.704;2023-07-08T04:26:02;95103.97;;;22.10;27.47
77366;BME280;66430;50.182;11.704;2023-07-08T04:28:27;95105.59;;;22.39;27.24
77366;BME280;66430;50.182;11.704;2023-07-08T04:30:52;95105.74;;;21.92;26.86
77366;BME280;66430;50.182;11.704;2023-07-08T04:33:18;95106.80;;;21.97;27.09
77366;BME280;66430;50.182;11.704;2023-07-08T04:35:44;95107.83;;;22.02;26.67
77366;BME280;66430;50.182;11.704;2023-07-08T04:38:14;95108.80;;;22.45;26.97
77366;BME280;66430;50.182;11.704;2023-07-08T04:40:34;95109.14;;;22.66;27.07
77366;BME280;66430;50.182;11.704;2023-07-08T04:42:59;95107.67;;;22.46;27.37
77366;BME280;66430;50.182;11.704;2023-07-08T04:45:24;95104.31;;;22.65;28.28
77366;BME280;66430;50.182;11.704;2023-07-08T04:47:49;95103.23;;;22.76;29.12
77366;BME280;66430;50.182;11.704;2023-07-08T04:50:15;95105.89;;;23.18;27.27
77366;BME280;66430;50.182;11.704;2023-07-08T04:52:41;95108.37;;;23.28;27.82
77366;BME280;66430;50.182;11.704;2023-07-08T04:55:07;95113.81;;;23.42;27.38
77366;BME280;66430;50.182;11.704;2023-07-08T04:57:31;95113.52;;;23.62;26.58
77366;BME280;66430;50.182;11.704;2023-07-08T04:59:56;95113.64;;;23.42;26.17
77366;BME280;66430;50.182;11.704;2023-07-08T05:02:21;95112.86;;;23.89;25.11
77366;BME280;66430;50.182;11.704;2023-07-08T05:04:46;95110.34;;;24.01;24.87
77366;BME280;66430;50.182;11.704;2023-07-08T05:07:12;95114.02;;;24.26;24.94
77366;BME280;66430;50.182;11.704;2023-07-08T05:09:37;95115.48;;;23.84;25.33
77366;BME280;66430;50.182;11.704;2023-07-08T05:12:03;95114.21;;;24.06;26.18
77366;BME280;66430;50.182;11.704;2023-07-08T05:14:28;95112.98;;;24.09;26.35
77366;BME280;66430;50.182;11.704;2023-07-08T05:16:56;95115.06;;;24.04;26.39
77366;BME280;66430;50.182;11.704;2023-07-08T05:19:18;95116.35;;;24.36;26.17
77366;BME280;66430;50.182;11.704;2023-07-08T05:21:44;95116.95;;;24.30;25.79
77366;BME280;66430;50.182;11.704;2023-07-08T05:24:09;95118.19;;;24.45;25.63
77366;BME280;66430;50.182;11.704;2023-07-08T05:26:35;95120.13;;;24.86;26.40
77366;BME280;66430;50.182;11.704;2023-07-08T05:29:00;95119.99;;;24.64;26.32
77366;BME280;66430;50.182;11.704;2023-07-08T05:31:26;95116.46;;;24.57;26.26
77366;BME280;66430;50.182;11.704;2023-07-08T05:33:51;95116.07;;;24.17;26.34
77366;BME280;66430;50.182;11.704;2023-07-08T05:36:16;95117.26;;;24.52;27.33
77366;BME280;66430;50.182;11.704;2023-07-08T05:38:47;95117.18;;;24.56;26.83
77366;BME280;66430;50.182;11.704;2023-07-08T05:41:07;95118.34;;;23.97;26.87
77366;BME280;66430;50.182;11.704;2023-07-08T05:43:32;95114.53;;;23.96;26.85
77366;BME280;66430;50.182;11.704;2023-07-08T05:45:58;95114.62;;;24.00;26.91
77366;BME280;66430;50.182;11.704;2023-07-08T05:48:23;95118.83;;;24.41;27.38
77366;BME280;66430;50.182;11.704;2023-07-08T05:50:48;95117.28;;;24.56;26.52
77366;BME280;66430;50.182;11.704;2023-07-08T05:53:14;95122.25;;;24.26;26.57
77366;BME280;66430;50.182;11.704;2023-07-08T05:55:39;95126.09;;;24.70;26.48
77366;BME280;66430;50.182;11.704;2023-07-08T05:58:04;95129.74;;;24.27;25.96
77366;BME280;66430;50.182;11.704;2023-07-08T06:00:29;95129.35;;;23.69;26.18
77366;BME280;66430;50.182;11.704;2023-07-08T06:02:54;95133.77;;;24.08;25.87
77366;BME280;66430;50.182;11.704;2023-07-08T06:05:19;95134.61;;;23.96;25.76
77366;BME280;66430;50.182;11.704;2023-07-08T06:07:44;95137.41;;;23.56;26.65
77366;BME280;66430;50.182;11.704;2023-07-08T06:10:10;95136.46;;;23.87;26.07
77366;BME280;66430;50.182;11.704;2023-07-08T06:12:35;95138.08;;;23.31;26.35
77366;BME280;66430;50.182;11.704;2023-07-08T06:15:00;95136.44;;;23.39;26.57
77366;BME280;66430;50.182;11.704;2023-07-08T06:17:26;95135.54;;;23.29;25.65
77366;BME280;66430;50.182;11.704;2023-07-08T06:19:51;95135.86;;;23.68;25.92
77366;BME280;66430;50.182;11.704;2023-07-08T06:22:16;95136.53;;;23.46;26.49
77366;BME280;66430;50.182;11.704;2023-07-08T06:24:42;95138.85;;;23.91;25.83
77366;BME280;66430;50.182;11.704;2023-07-08T06:27:09;95136.14;;;23.64;26.17
77366;BME280;66430;50.182;11.704;2023-07-08T06:29:34;95139.82;;;23.31;26.38
77366;BME280;66430;50.182;11.704;2023-07-08T06:31:58;95141.39;;;23.89;26.41
77366;BME280;66430;50.182;11.704;2023-07-08T06:34:23;95140.64;;;23.50;25.98
77366;BME280;66430;50.182;11.704;2023-07-08T06:36:50;95142.21;;;23.75;27.19
77366;BME280;66430;50.182;11.704;2023-07-08T06:39:14;95142.50;;;23.85;26.12
77366;BME280;66430;50.182;11.704;2023-07-08T06:41:40;95143.28;;;23.88;27.21
77366;BME280;66430;50.182;11.704;2023-07-08T06:44:05;95140.96;;;24.05;27.46
77366;BME280;66430;50.182;11.704;2023-07-08T06:46:31;95141.11;;;24.08;27.13
77366;BME280;66430;50.182;11.704;2023-07-08T06:48:56;95139.98;;;23.86;26.76
77366;BME280;66430;50.182;11.704;2023-07-08T06:51:21;95146.18;;;24.21;26.99
77366;BME280;66430;50.182;11.704;2023-07-08T06:53:47;95143.65;;;24.41;26.57
77366;BME280;66430;50.182;11.704;2023-07-08T06:56:11;95141.91;;;23.81;27.03
77366;BME280;66430;50.182;11.704;2023-07-08T06:58:37;95144.10;;;24.79;27.18
77366;BME280;66430;50.182;11.704;2023-07-08T07:01:02;95140.04;;;25.46;27.63
77366;BME280;66430;50.182;11.704;2023-07-08T07:03:27;95138.29;;;25.85;26.31
77366;BME280;66430;50.182;11.704;2023-07-08T07:05:52;95138.84;;;25.19;27.98
77366;BME280;66430;50.182;11.704;2023-07-08T07:08:17;95131.33;;;25.22;26.61
77366;BME280;66430;50.182;11.704;2023-07-08T07:10:42;95130.44;;;24.66;26.96
77366;BME280;66430;50.182;11.704;2023-07-08T07:13:13;95132.14;;;24.90;26.89
77366;BME280;66430;50.182;11.704;2023-07-08T07:15:32;95132.60;;;24.58;27.10
77366;BME280;66430;50.182;11.704;2023-07-08T07:17:58;95130.60;;;24.91;27.27
77366;BME280;66430;50.182;11.704;2023-07-08T07:20:24;95126.68;;;24.52;27.21
77366;BME280;66430;50.182;11.704;2023-07-08T07:22:48;95119.99;;;24.86;26.85
77366;BME280;66430;50.182;11.704;2023-07-08T07:25:15;95116.57;;;24.91;27.65
77366;BME280;66430;50.182;11.704;2023-07-08T07:27:39;95120.25;;;24.87;27.14
77366;BME280;66430;50.182;11.704;2023-07-08T07:30:06;95122.37;;;24.91;27.12
77366;BME280;66430;50.182;11.704;2023-07-08T07:32:32;95120.11;;;25.19;26.99
77366;BME280;66430;50.182;11.704;2023-07-08T07:34:56;95119.88;;;25.32;27.38
77366;BME280;66430;50.182;11.704;2023-07-08T07:37:22;95118.06;;;25.41;28.09
77366;BME280;66430;50.182;11.704;2023-07-08T07:39:47;95122.94;;;25.35;27.02
77366;BME280;66430;50.182;11.704;2023-07-08T07:42:12;95121.89;;;25.19;27.26
77366;BME280;66430;50.182;11.704;2023-07-08T07:44:37;95122.51;;;25.59;26.49
77366;BME280;66430;50.182;11.704;2023-07-08T07:47:02;95123.71;;;26.72;26.23
77366;BME280;66430;50.182;11.704;2023-07-08T07:49:27;95121.08;;;26.59;25.92
77366;BME280;66430;50.182;11.704;2023-07-08T07:51:52;95122.62;;;26.50;25.68
77366;BME280;66430;50.182;11.704;2023-07-08T07:54:18;95128.09;;;27.46;26.30
77366;BME280;66430;50.182;11.704;2023-07-08T07:56:43;95124.96;;;27.85;25.24
77366;BME280;66430;50.182;11.704;2023-07-08T07:59:09;95124.88;;;28.32;23.92
77366;BME280;66430;50.182;11.704;2023-07-08T08:01:33;95125.70;;;27.84;23.79
77366;BME280;66430;50.182;11.704;2023-07-08T08:03:59;95125.03;;;28.85;23.79
77366;BME280;66430;50.182;11.704;2023-07-08T08:06:29;95129.99;;;28.65;22.80
77366;BME280;66430;50.182;11.704;2023-07-08T08:08:50;95132.01;;;28.51;22.30
77366;BME280;66430;50.182;11.704;2023-07-08T08:11:15;95134.60;;;29.01;22.39
77366;BME280;66430;50.182;11.704;2023-07-08T08:13:40;95133.04;;;29.18;22.22
77366;BME280;66430;50.182;11.704;2023-07-08T08:16:05;95133.90;;;29.36;21.61
77366;BME280;66430;50.182;11.704;2023-07-08T08:18:30;95131.24;;;29.28;21.31
77366;BME280;66430;50.182;11.704;2023-07-08T08:20:56;95133.96;;;29.22;21.76
77366;BME280;66430;50.182;11.704;2023-07-08T08:23:21;95137.73;;;29.71;21.54
77366;BME280;66430;50.182;11.704;2023-07-08T08:25:47;95137.88;;;29.40;21.59
77366;BME280;66430;50.182;11.704;2023-07-08T08:28:13;95133.18;;;29.31;21.35
77366;BME280;66430;50.182;11.704;2023-07-08T08:30:38;95134.35;;;29.13;20.96
77366;BME280;66430;50.182;11.704;2023-07-08T08:33:03;95131.39;;;28.42;20.89
77366;BME280;66430;50.182;11.704;2023-07-08T08:35:28;95136.04;;;28.46;21.86
77366;BME280;66430;50.182;11.704;2023-07-08T08:37:53;95137.19;;;28.47;22.01
77366;BME280;66430;50.182;11.704;2023-07-08T08:40:19;95135.78;;;27.85;22.34
77366;BME280;66430;50.182;11.704;2023-07-08T08:42:50;95129.60;;;28.51;22.75
77366;BME280;66430;50.182;11.704;2023-07-08T08:45:13;95137.42;;;29.04;21.60
77366;BME280;66430;50.182;11.704;2023-07-08T08:47:38;95137.05;;;28.12;22.57
77366;BME280;66430;50.182;11.704;2023-07-08T08:50:19;95134.96;;;28.63;22.99
77366;BME280;66430;50.182;11.704;2023-07-08T08:52:27;95140.50;;;29.38;21.36
77366;BME280;66430;50.182;11.704;2023-07-08T08:54:52;95140.05;;;29.59;20.99
77366;BME280;66430;50.182;11.704;2023-07-08T08:57:28;95144.74;;;29.84;20.63
77366;BME280;66430;50.182;11.704;2023-07-08T08:59:45;95141.39;;;29.73;20.18
77366;BME280;66430;50.182;11.704;2023-07-08T09:02:25;95140.94;;;30.21;19.37
77366;BME280;66430;50.182;11.704;2023-07-08T09:04:36;95140.47;;;29.74;20.33
77366;BME280;66430;50.182;11.704;2023-07-08T09:07:04;95136.60;;;29.28;20.00
77366;BME280;66430;50.182;11.704;2023-07-08T09:09:30;95140.29;;;29.64;21.85
77366;BME280;66430;50.182;11.704;2023-07-08T09:11:53;95140.05;;;29.06;19.40
77366;BME280;66430;50.182;11.704;2023-07-08T09:14:19;95139.87;;;28.76;20.49
77366;BME280;66430;50.182;11.704;2023-07-08T09:16:48;95139.77;;;28.32;21.08
77366;BME280;66430;50.182;11.704;2023-07-08T09:19:11;95140.70;;;28.54;19.99
77366;BME280;66430;50.182;11.704;2023-07-08T09:21:37;95141.32;;;29.42;20.19
77366;BME280;66430;50.182;11.704;2023-07-08T09:24:01;95145.49;;;29.99;18.65
77366;BME280;66430;50.182;11.704;2023-07-08T09:26:24;95143.71;;;30.44;18.04
77366;BME280;66430;50.182;11.704;2023-07-08T09:28:48;95141.56;;;30.06;17.52
77366;BME280;66430;50.182;11.704;2023-07-08T09:31:22;95140.07;;;30.46;17.27
77366;BME280;66430;50.182;11.704;2023-07-08T09:33:39;95140.01;;;30.43;17.30
77366;BME280;66430;50.182;11.704;2023-07-08T09:36:16;95139.93;;;30.76;17.50
77366;BME280;66430;50.182;11.704;2023-07-08T09:38:34;95137.16;;;30.75;16.52
77366;BME280;66430;50.182;11.704;2023-07-08T09:40:55;95138.64;;;30.96;16.29
77366;BME280;66430;50.182;11.704;2023-07-08T09:43:25;95140.04;;;31.02;16.54
77366;BME280;66430;50.182;11.704;2023-07-08T09:45:47;95140.06;;;30.51;18.51
77366;BME280;66430;50.182;11.704;2023-07-08T09:48:17;95137.18;;;31.18;16.48
77366;BME280;66430;50.182;11.704;2023-07-08T09:50:37;95134.72;;;31.00;16.33
77366;BME280;66430;50.182;11.704;2023-07-08T09:53:02;95135.42;;;31.02;16.88
77366;BME280;66430;50.182;11.704;2023-07-08T09:55:27;95137.47;;;29.76;16.54
77366;BME280;66430;50.182;11.704;2023-07-08T09:57:53;95139.81;;;30.01;17.33
77366;BME280;66430;50.182;11.704;2023-07-08T10:00:30;95140.22;;;29.81;17.42
77366;BME280;66430;50.182;11.704;2023-07-08T10:02:46;95141.83;;;29.65;17.65
77366;BME280;66430;50.182;11.704;2023-07-08T10:05:14;95137.59;;;29.95;18.08
77366;BME280;66430;50.182;11.704;2023-07-08T10:07:34;95143.88;;;29.99;18.18
77366;BME280;66430;50.182;11.704;2023-07-08T10:10:04;95142.15;;;29.92;17.28
77366;BME280;66430;50.182;11.704;2023-07-08T10:12:25;95138.50;;;29.36;17.69
77366;BME280;66430;50.182;11.704;2023-07-08T10:14:52;95139.02;;;29.56;17.85
77366;BME280;66430;50.182;11.704;2023-07-08T10:17:17;95135.54;;;29.46;17.95
77366;BME280;66430;50.182;11.704;2023-07-08T10:19:43;95140.10;;;29.69;18.57
77366;BME280;66430;50.182;11.704;2023-07-08T10:22:17;95141.37;;;29.84;17.44
77366;BME280;66430;50.182;11.704;2023-07-08T10:24:40;95139.38;;;29.52;15.40
77366;BME280;66430;50.182;11.704;2023-07-08T10:27:04;95138.36;;;29.37;17.93
77366;BME280;66430;50.182;11.704;2023-07-08T10:29:28;95139.82;;;29.60;18.21
77366;BME280;66430;50.182;11.704;2023-07-08T10:31:50;95132.26;;;30.74;17.37
77366;BME280;66430;50.182;11.704;2023-07-08T10:34:23;95126.54;;;30.77;16.52
77366;BME280;66430;50.182;11.704;2023-07-08T10:36:46;95127.76;;;31.27;16.57
77366;BME280;66430;50.182;11.704;2023-07-08T10:39:21;95127.06;;;31.05;16.31
77366;BME280;66430;50.182;11.704;2023-07-08T10:41:34;95132.71;;;30.09;15.89
77366;BME280;66430;50.182;11.704;2023-07-08T10:44:04;95133.14;;;30.63;16.35
77366;BME280;66430;50.182;11.704;2023-07-08T10:46:26;95133.14;;;30.58;15.41
77366;BME280;66430;50.182;11.704;2023-07-08T10:51:16;95130.11;;;31.05;15.82
77366;BME280;66430;50.182;11.704;2023-07-08T10:53:49;95128.26;;;31.80;15.53
77366;BME280;66430;50.182;11.704;2023-07-08T10:56:07;95132.26;;;32.19;16.77
77366;BME280;66430;50.182;11.704;2023-07-08T10:58:45;95133.75;;;31.62;17.04
77366;BME280;66430;50.182;11.704;2023-07-08T11:00:59;95134.11;;;31.70;15.28
77366;BME280;66430;50.182;11.704;2023-07-08T11:03:32;95130.84;;;32.35;14.14
77366;BME280;66430;50.182;11.704;2023-07-08T11:05:44;95132.52;;;32.29;14.52
77366;BME280;66430;50.182;11.704;2023-07-08T11:08:14;95125.47;;;31.65;15.92
77366;BME280;66430;50.182;11.704;2023-07-08T11:10:36;95123.02;;;31.26;16.16
77366;BME280;66430;50.182;11.704;2023-07-08T11:13:01;95125.57;;;30.99;16.64
77366;BME280;66430;50.182;11.704;2023-07-08T11:15:27;95124.25;;;31.19;15.08
77366;BME280;66430;50.182;11.704;2023-07-08T11:17:52;95124.98;;;30.91;16.35
77366;BME280;66430;50.182;11.704;2023-07-08T11:20:17;95120.33;;;31.24;15.05
77366;BME280;66430;50.182;11.704;2023-07-08T11:22:45;95117.37;;;30.87;15.79
77366;BME280;66430;50.182;11.704;2023-07-08T11:25:08;95115.74;;;30.19;16.89
77366;BME280;66430;50.182;11.704;2023-07-08T11:27:32;95117.13;;;29.75;17.69
77366;BME280;66430;50.182;11.704;2023-07-08T11:29:58;95114.34;;;30.23;17.32
77366;BME280;66430;50.182;11.704;2023-07-08T11:32:22;95105.87;;;30.57;15.65
77366;BME280;66430;50.182;11.704;2023-07-08T11:34:48;95111.86;;;31.34;16.64
77366;BME280;66430;50.182;11.704;2023-07-08T11:37:12;95108.02;;;31.75;16.36
77366;BME280;66430;50.182;11.704;2023-07-08T11:39:41;95105.38;;;31.50;15.25
77366;BME280;66430;50.182;11.704;2023-07-08T11:42:15;95110.66;;;32.10;16.98
77366;BME280;66430;50.182;11.704;2023-07-08T11:44:27;95105.52;;;31.08;16.00
77366;BME280;66430;50.182;11.704;2023-07-08T11:46:55;95102.31;;;30.45;15.87
77366;BME280;66430;50.182;11.704;2023-07-08T11:49:18;95104.05;;;31.14;16.05
77366;BME280;66430;50.182;11.704;2023-07-08T11:51:44;95099.08;;;31.18;16.05
77366;BME280;66430;50.182;11.704;2023-07-08T11:54:14;95098.79;;;30.75;17.07
77366;BME280;66430;50.182;11.704;2023-07-08T11:59:11;95092.24;;;31.01;16.39
77366;BME280;66430;50.182;11.704;2023-07-08T12:01:27;95093.87;;;31.72;15.93
77366;BME280;66430;50.182;11.704;2023-07-08T12:03:51;95093.24;;;30.75;17.01
77366;BME280;66430;50.182;11.704;2023-07-08T12:08:42;95090.61;;;31.75;16.78
77366;BME280;66430;50.182;11.704;2023-07-08T12:11:11;95086.69;;;32.10;15.33
77366;BME280;66430;50.182;11.704;2023-07-08T12:13:31;95084.62;;;32.29;14.99
77366;BME280;66430;50.182;11.704;2023-07-08T12:15:57;95084.43;;;32.28;14.87
77366;BME280;66430;50.182;11.704;2023-07-08T12:18:25;95082.71;;;32.31;14.37
77366;BME280;66430;50.182;11.704;2023-07-08T12:20:49;95079.79;;;31.70;15.66
77366;BME280;66430;50.182;11.704;2023-07-08T12:23:15;95080.86;;;31.99;13.48
77366;BME280;66430;50.182;11.704;2023-07-08T12:25:38;95078.15;;;32.06;13.73
77366;BME280;66430;50.182;11.704;2023-07-08T12:28:04;95076.62;;;32.02;13.61
77366;BME280;66430;50.182;11.704;2023-07-08T12:30:30;95076.33;;;31.78;13.93
77366;BME280;66430;50.182;11.704;2023-07-08T12:32:55;95074.65;;;31.87;13.61
77366;BME280;66430;50.182;11.704;2023-07-08T12:35:24;95074.85;;;30.77;14.85
77366;BME280;66430;50.182;11.704;2023-07-08T12:37:46;95075.57;;;31.60;15.40
77366;BME280;66430;50.182;11.704;2023-07-08T12:40:12;95079.11;;;32.16;15.20
77366;BME280;66430;50.182;11.704;2023-07-08T12:42:36;95073.86;;;32.12;14.95
77366;BME280;66430;50.182;11.704;2023-07-08T12:45:01;95069.61;;;32.07;14.15
77366;BME280;66430;50.182;11.704;2023-07-08T12:47:26;95068.88;;;32.25;14.52
77366;BME280;66430;50.182;11.704;2023-07-08T12:49:52;95075.26;;;32.38;15.05